Schuyler, Virginia
Current Conditions -  °F | °C
As of 3:55 PM on Tuesday 21 Oct 2014 (Local Time) from KW13 Reporting Station
Overcast Overcast  
Wind Chill: 57°   Ceiling: 7000
Heat Index: 57°   Visibility: 10mi
Dew Point: 44°   Wind: 13mph
Humidity: 62%   Direction: 270°W
Pressure: 29.85"   Gusts: 23mph
Location:  37.79°N, 78.7°W
Report Text: KW13 211955Z AUTO 27011G20KT 250V310 10SM SCT043 BKN070 OVC100 14/07 A2985 RMK AO1 T01390067
Loading
Personal Weather Stations






























Interactive Weather Map
Tropical Storm Tracking
New forecast layout! Learn more

10-Day Weather Forecast

Advertisements
Track Severe Weather on mobile